Logo AVAMET
Benvolgut visitant, si us plau, ingressa Recuperar contrasenya

Inforatge Dénia Santa Llúcia

Dades diàries. Acumulats / Últims 30 dies disponibles

Data Temperatura (°C) Humitat rel. (%) Pressió rel. (hPa) Vent (km/h) Precipitació
Mínima Mitjana Màxima Amplitud
tèrmica
Mínima Mitjana Màxima Mínima Mitjana Màxima Predom. Mitjana Ràfega
màxima
Total
(mm)
Índex-n
Mínima Mitjana Màxima Mínima Mitjana Màxima n
0 a 1
P0 max
mm 5'
Dades mensuals acumulades fins l'últim dia disponible
01/2020 6,6 9,0 11,5 11,8 12,4 15,0 18,8 12,2 41 74 93 1.017 1.031 1.038   3,5 66,0 27,0
Dades anuals acumulades fins l'últim dia disponible
2020 6,6 9,0 11,5 11,8 12,4 15,0 18,8 12,2 41 74 93 1.017 1.031 1.038   3,5 66,0 27,0
Últims 30 dies disponibles
19-01-2020 8,7     11,8     16,6 7,9 61 79 90 1.017 1.020 1.024 SSO 11,9 66,0 19,0
18-01-2020 11,5     14,6     17,8 6,3 52 63 73 1.024 1.031 1.036 SW 2,9 29,0 0,0
17-01-2020 10,4     14,9     18,8 8,4 41 55 81 1.031 1.033 1.036 WNW 8,4 43,5 0,0
16-01-2020 11,1     14,1     17,0 5,9 54 69 77 1.030 1.031 1.033 SSE 2,6 16,1 0,0
15-01-2020 10,2     14,2     17,7 7,5 48 56 67 1.026 1.029 1.031 WNW 2,9 24,1 0,0
14-01-2020 8,2     11,4     14,6 6,4 45 59 72 1.025 1.026 1.027 SSE 2,9 17,7 0,0
13-01-2020 6,6     11,0     16,7 10,1 43 62 78 1.026 1.029 1.033 SSE 2,3 14,5 0,0
12-01-2020 7,1     9,6     13,3 6,2 58 72 85 1.032 1.033 1.035 SSE 2,7 12,9 0,0
11-01-2020 8,7     11,0     13,5 4,8 68 75 83 1.032 1.034 1.036 SSE 3,9 24,1 0,0
10-01-2020 9,3     11,6     13,8 4,5 64 79 93 1.026 1.029 1.032 NNE 7,6 51,5 7,4 0,42 1,20
09-01-2020 10,4     11,9     13,4 3,0 69 80 86 1.027 1.031 1.034 SW 2,4 24,1 0,0
08-01-2020 8,8     11,2     13,3 4,5 76 85 91 1.031 1.033 1.035 SSE 2,7 19,3 0,0
07-01-2020 9,3     11,5     16,2 6,9 69 82 91 1.032 1.034 1.036 SSE 1,9 11,3 0,0
06-01-2020 9,1     11,3     13,3 4,2 75 82 91 1.032 1.033 1.034 W 3,2 20,9 0,0
05-01-2020 8,3     11,2     15,4 7,1 63 71 81 1.031 1.032 1.035 SSE 2,3 11,3 0,0
04-01-2020 8,8     11,1     15,2 6,4 67 78 89 1.035 1.036 1.038 SSE 1,8 12,9 0,0
03-01-2020 8,1     10,6     12,9 4,8 83 88 93 1.033 1.035 1.037 SSE 2,1 14,5 0,2
02-01-2020 8,3     10,1     13,1 4,8 81 88 92 1.034 1.035 1.037 SSE 1,3 11,3 0,2
01-01-2020 8,2     10,3     12,4 4,2 81 87 92 1.035 1.036 1.037 SSE 1,3 8,0 0,2
31-12-2019 8,4     10,7     12,6 4,2 79 85 89 1.035 1.036 1.038 S 1,5 11,3 0,0
30-12-2019 9,7     11,6     13,5 3,8 74 82 90 1.035 1.036 1.038 SW 1,9 14,5 0,0
29-12-2019 9,2     10,9     12,8 3,6 77 85 91 1.034 1.036 1.038 SSE 1,0 11,3 0,0
28-12-2019 10,5     12,4     16,0 5,5 73 85 94 1.032 1.034 1.036 SSE 1,8 16,1 0,0
27-12-2019 11,1     13,5     18,7 7,6 69 80 93 1.031 1.033 1.034 SSE 1,8 17,7 0,0
26-12-2019 13,5     16,3     20,9 7,4 46 63 78 1.028 1.031 1.034 SSE 2,3 14,5 0,0
25-12-2019 12,8     15,4     18,3 5,5 SSE 1,8 14,5 0,0
24-12-2019 18,2     18,8     19,4 1,2 43 47 50 1.030 1.030 1.030 O 4,7 19,3 0,0
23-12-2019 14,8     17,8     21,8 7,0 37 52 63 1.024 1.028 1.031 WNW 7,7 40,2 0,0
22-12-2019 15,4     18,8     21,6 6,2 42 49 60 1.011 1.019 1.024 WNW 12,9 66,0 0,0
21-12-2019 20,5     22,6     24,9 4,4 33 55 64 1.005 1.008 1.011 SW 15,4 88,5 0,0
Últims 13 mesos disponibles
12/2019 8,4 12,5 20,5 14,8 12,6 17,6 24,9 16,5 47 69 88 1.007 1.022 1.036 WNW 6,2 88,5 170,2
11/2019 8,1 13,6 22,1 16,4 14,7 19,6 26,8 18,7 43 55 76 1.003 1.014 1.022 WNW 10,9 72,4 10,6
10/2019 12,6 18,0 21,7 21,1 16,6 24,5 34,5 21,9 42 68 85 1.012 1.020 1.025 SW 4,5 66,0 79,0
09/2019 13,9 21,1 24,1 24,3 23,3 27,9 34,2 20,3 50 74 92 1.014 1.021 1.027 SSE 5,5 68,5 205,0
08/2019 20,1 23,7 26,8 27,3 26,6 31,9 40,7 20,6 51 69 82 1.014 1.019 1.024 SSE 5,9 63,0 67,8
07/2019 22,5 23,8 26,6 27,2 27,8 31,5 38,7 16,2 44 67 83 1.010 1.018 1.025 SSE 6,5 82,0 2,2
06/2019 14,9 19,1 23,8 23,1 20,8 27,5 37,8 22,9 36 65 85 1.012 1.019 1.025 SSE 7,3 70,9 1,0
05/2019 12,2 15,8 21,8 19,3 18,2 23,8 31,3 19,1 49 66 84 1.009 1.019 1.028 SSE 6,2 68,5 9,4
04/2019 9,7 12,9 16,4 15,6 14,6 18,9 24,6 14,9 47 69 94 1.003 1.016 1.029 SSE 7,7 68,5 322,2
03/2019 8,3 11,7 17,8 15,4 11,9 19,2 27,7 19,4 26 60 91 1.015 1.026 1.034 SSE 5,4 51,9 39,6
02/2019 7,7 9,9 13,6 13,2 12,5 17,1 24,6 16,9 36 63 85 999 1.028 1.037 SSE 5,3 69,3 0,0
01/2019 6,4 9,5 14,2 12,3 11,3 15,6 21,2 14,8 39 60 83 1.007 1.023 1.034 O 6,4 66,7 6,0
12/2018 8,2 11,2 15,3 14,4 13,2 18,2 22,7 14,5 45 68 89 1.012 1.029 1.034 SSE 3,8 66,7 28,8
Tots els anys disponibles
2019 6,4 16,1 26,8 19,3 11,3 23,0 40,7 34,3 26 65 94 999 1.021 1.037 SSE 6,5 88,5 913,0
Temperatura (°C)
Humitat relativa (%)
Velocitat del vent i ràfega màxima (km/h)
Direcció del vent (°)
Pressió (hPa)
Precipitació (mm)
Nota sobre les dades: s'avisa a l'usuari de la provisionalitat i no oficialitat d'aquestes dades
Logo AVAMET blanc
Web allotjada a Sollutia
Llicència de Creative CommonsLa web d'AVAMET i els seus continguts estan subjectes a una llicència de
Reconeixement - No Comercial - Compartir igual
Últimes estacions: Xixona - Els Ameradors (Soci), Agres - El Tossal (Soci), Xàbia - Bevenguts (MeteoXàbia), Llíria (Aj. Soci/Inforatge), Orihuela - Lo Capitán, Cox & Guardamar del Segura - horta (Meteorihuela), l'Alcúdia - Carriona & el Real de Gandia (Inforatge), Benicàssim - les Vil·les (Soci),  l'Alfàs del Pi - l'Albir (Soci), - - -